Time,TemperatureF,DewpointF,PressureIn,WindDirection,WindDirectionDegrees,WindSpeedMPH,WindSpeedGustMPH,Humidity,HourlyPrecipIn,Conditions,Clouds,dailyrainin,SoftwareType,DateUTC
2013-10-02 00:01:00,75.0,70.0,29.81,SE,146,3.0,5.0,85,0.00,,,0.00,weatherlink.com 1.10,2013-10-02 05:01:00,
2013-10-02 00:16:00,74.6,70.0,29.81,SE,146,1.0,3.0,86,0.00,,,0.00,weatherlink.com 1.10,2013-10-02 05:16:00,
2013-10-02 00:31:00,74.4,70.0,29.81,SE,146,0.0,4.0,87,0.00,,,0.00,weatherlink.com 1.10,2013-10-02 05:31:00,
2013-10-02 00:46:00,74.5,71.0,29.81,SE,146,1.0,4.0,88,0.00,,,0.00,weatherlink.com 1.10,2013-10-02 05:46:00,
2013-10-02 01:01:00,74.3,71.0,29.80,SE,146,1.0,4.0,89,0.00,,,0.00,weatherlink.com 1.10,2013-10-02 06:01:00,
2013-10-02 01:16:00,74.2,71.0,29.80,SE,146,1.0,4.0,89,0.00,,,0.00,weatherlink.com 1.10,2013-10-02 06:16:00,
2013-10-02 01:31:00,74.3,71.0,29.80,SE,146,2.0,4.0,89,0.00,,,0.00,weatherlink.com 1.10,2013-10-02 06:31:00,
2013-10-02 01:46:00,74.2,71.0,29.80,SE,146,1.0,4.0,89,0.00,,,0.00,weatherlink.com 1.10,2013-10-02 06:46:00,
2013-10-02 02:01:00,74.1,71.0,29.80,SE,146,3.0,5.0,90,0.00,,,0.00,weatherlink.com 1.10,2013-10-02 07:01:00,
2013-10-02 02:16:00,74.3,71.0,29.80,SSE,147,3.0,8.0,90,0.00,,,0.00,weatherlink.com 1.10,2013-10-02 07:16:00,
2013-10-02 02:31:00,74.6,71.0,29.80,SSE,148,2.0,9.0,89,0.00,,,0.00,weatherlink.com 1.10,2013-10-02 07:31:00,
2013-10-02 02:46:00,74.5,71.0,29.80,SSE,148,2.0,7.0,88,0.00,,,0.00,weatherlink.com 1.10,2013-10-02 07:46:00,
2013-10-02 03:01:00,74.6,71.0,29.80,SSE,157,4.0,9.0,88,0.00,,,0.00,weatherlink.com 1.10,2013-10-02 08:01:00,
2013-10-02 03:16:00,74.4,71.0,29.79,SSE,161,1.0,8.0,88,0.00,,,0.00,weatherlink.com 1.10,2013-10-02 08:16:00,
2013-10-02 03:31:00,74.0,71.0,29.79,SSE,161,4.0,7.0,89,0.00,,,0.00,weatherlink.com 1.10,2013-10-02 08:31:00,
2013-10-02 03:46:00,73.8,70.0,29.79,SSE,164,3.0,9.0,89,0.00,,,0.00,weatherlink.com 1.10,2013-10-02 08:46:00,
2013-10-02 04:01:00,73.5,71.0,29.79,SSE,163,3.0,7.0,90,0.00,,,0.00,weatherlink.com 1.10,2013-10-02 09:01:00,
2013-10-02 04:16:00,73.1,70.0,29.79,SSE,163,2.0,4.0,90,0.00,,,0.00,weatherlink.com 1.10,2013-10-02 09:16:00,
2013-10-02 04:31:00,72.7,70.0,29.79,SSE,163,0.0,0.0,91,0.00,,,0.00,weatherlink.com 1.10,2013-10-02 09:31:00,
2013-10-02 04:46:00,72.1,70.0,29.79,SSE,163,1.0,1.0,92,0.00,,,0.00,weatherlink.com 1.10,2013-10-02 09:46:00,
2013-10-02 05:01:00,71.9,70.0,29.79,SSE,163,0.0,0.0,92,0.00,,,0.00,weatherlink.com 1.10,2013-10-02 10:01:00,
2013-10-02 05:16:00,71.9,70.0,29.79,SSE,163,0.0,1.0,93,0.00,,,0.00,weatherlink.com 1.10,2013-10-02 10:16:00,
2013-10-02 05:31:00,71.9,70.0,29.79,SSE,163,0.0,1.0,93,0.00,,,0.00,weatherlink.com 1.10,2013-10-02 10:31:00,
2013-10-02 05:46:00,71.8,70.0,29.79,SSE,163,0.0,1.0,93,0.00,,,0.00,weatherlink.com 1.10,2013-10-02 10:46:00,
2013-10-02 06:01:00,71.6,70.0,29.79,SSE,163,0.0,2.0,93,0.00,,,0.00,weatherlink.com 1.10,2013-10-02 11:01:00,
2013-10-02 06:16:00,71.4,70.0,29.80,SSE,163,0.0,1.0,94,0.00,,,0.00,weatherlink.com 1.10,2013-10-02 11:16:00,
2013-10-02 06:31:00,71.2,69.0,29.80,SSE,163,0.0,1.0,94,0.00,,,0.00,weatherlink.com 1.10,2013-10-02 11:31:00,
2013-10-02 06:46:00,71.1,69.0,29.80,SSE,163,0.0,1.0,94,0.00,,,0.00,weatherlink.com 1.10,2013-10-02 11:46:00,
2013-10-02 07:01:00,71.0,69.0,29.80,SSE,163,0.0,2.0,94,0.00,,,0.00,weatherlink.com 1.10,2013-10-02 12:01:00,
2013-10-02 07:16:00,71.0,70.0,29.81,SSE,163,0.0,1.0,95,0.00,,,0.00,weatherlink.com 1.10,2013-10-02 12:16:00,
2013-10-02 07:31:00,70.8,69.0,29.81,SSE,163,0.0,1.0,95,0.00,,,0.00,weatherlink.com 1.10,2013-10-02 12:31:00,
2013-10-02 07:46:00,70.8,69.0,29.81,SSE,163,0.0,1.0,95,0.00,,,0.00,weatherlink.com 1.10,2013-10-02 12:46:00,
2013-10-02 08:01:00,70.6,69.0,29.82,SSE,163,0.0,0.0,95,0.00,,,0.00,weatherlink.com 1.10,2013-10-02 13:01:00,
2013-10-02 08:16:00,71.0,70.0,29.82,SSE,163,0.0,1.0,96,0.00,,,0.00,weatherlink.com 1.10,2013-10-02 13:16:00,
2013-10-02 08:46:00,72.6,71.0,29.83,SSE,163,0.0,5.0,96,0.00,,,0.00,weatherlink.com 1.10,2013-10-02 13:46:00,
2013-10-02 09:01:00,73.5,72.0,29.83,SSE,163,0.0,2.0,95,0.00,,,0.00,weatherlink.com 1.10,2013-10-02 14:01:00,
2013-10-02 09:16:00,75.1,72.0,29.84,SSE,163,0.0,4.0,90,0.00,,,0.00,weatherlink.com 1.10,2013-10-02 14:16:00,
2013-10-02 09:32:00,75.1,72.0,29.84,SSE,163,3.0,7.0,89,0.00,,,0.00,weatherlink.com 1.10,2013-10-02 14:32:00,
2013-10-02 09:47:00,76.9,73.0,29.84,SSE,163,0.0,6.0,87,0.00,,,0.00,weatherlink.com 1.10,2013-10-02 14:47:00,
2013-10-02 10:17:00,77.9,72.0,29.85,SSE,166,4.0,9.0,83,0.00,,,0.00,weatherlink.com 1.10,2013-10-02 15:17:00,
2013-10-02 10:32:00,79.5,73.0,29.85,South,173,6.0,10.0,79,0.00,,,0.00,weatherlink.com 1.10,2013-10-02 15:32:00,
2013-10-02 10:47:00,80.9,72.0,29.85,South,177,7.0,10.0,74,0.00,,,0.00,weatherlink.com 1.10,2013-10-02 15:47:00,
2013-10-02 11:02:00,81.2,71.0,29.84,South,186,4.0,12.0,72,0.00,,,0.00,weatherlink.com 1.10,2013-10-02 16:02:00,
2013-10-02 11:17:00,82.5,72.0,29.84,South,184,7.0,10.0,70,0.00,,,0.00,weatherlink.com 1.10,2013-10-02 16:17:00,
2013-10-02 11:32:00,83.6,71.0,29.84,SSE,163,5.0,14.0,65,0.00,,,0.00,weatherlink.com 1.10,2013-10-02 16:32:00,
2013-10-02 11:47:00,83.5,71.0,29.83,South,174,8.0,12.0,66,0.00,,,0.00,weatherlink.com 1.10,2013-10-02 16:47:00,
2013-10-02 12:02:00,83.9,71.0,29.83,South,178,8.0,12.0,65,0.00,,,0.00,weatherlink.com 1.10,2013-10-02 17:02:00,
2013-10-02 12:17:00,83.9,69.0,29.83,SSW,193,6.0,13.0,62,0.00,,,0.00,weatherlink.com 1.10,2013-10-02 17:17:00,
2013-10-02 12:32:00,84.6,72.0,29.82,SSE,165,8.0,8.0,65,0.00,,,0.00,weatherlink.com 1.10,2013-10-02 17:32:00,
2013-10-02 12:47:00,85.1,70.0,29.82,SSE,166,5.0,11.0,61,0.00,,,0.00,weatherlink.com 1.10,2013-10-02 17:47:00,
2013-10-02 13:02:00,84.8,69.0,29.81,SSE,159,5.0,10.0,60,0.00,,,0.00,weatherlink.com 1.10,2013-10-02 18:02:00,
2013-10-02 13:17:00,85.9,70.0,29.80,SSW,192,6.0,11.0,59,0.00,,,0.00,weatherlink.com 1.10,2013-10-02 18:17:00,
2013-10-02 13:32:00,86.4,70.0,29.80,South,188,6.0,11.0,59,0.00,,,0.00,weatherlink.com 1.10,2013-10-02 18:32:00,
2013-10-02 13:47:00,86.3,70.0,29.79,South,177,9.0,12.0,59,0.00,,,0.00,weatherlink.com 1.10,2013-10-02 18:47:00,
2013-10-02 14:02:00,86.5,71.0,29.79,SSW,195,7.0,10.0,60,0.00,,,0.00,weatherlink.com 1.10,2013-10-02 19:02:00,
2013-10-02 14:17:00,87.2,69.0,29.78,South,181,2.0,11.0,55,0.00,,,0.00,weatherlink.com 1.10,2013-10-02 19:17:00,
2013-10-02 14:32:00,87.8,70.0,29.77,SSW,198,4.0,11.0,55,0.00,,,0.00,weatherlink.com 1.10,2013-10-02 19:32:00,
2013-10-02 14:48:00,87.3,69.0,29.76,South,187,3.0,9.0,54,0.00,,,0.00,weatherlink.com 1.10,2013-10-02 19:48:00,
2013-10-02 15:03:00,86.9,69.0,29.76,South,173,3.0,10.0,55,0.00,,,0.00,weatherlink.com 1.10,2013-10-02 20:03:00,
2013-10-02 15:18:00,88.4,68.0,29.75,South,179,3.0,14.0,51,0.00,,,0.00,weatherlink.com 1.10,2013-10-02 20:18:00,
2013-10-02 15:33:00,88.5,67.0,29.75,South,184,5.0,11.0,49,0.00,,,0.00,weatherlink.com 1.10,2013-10-02 20:33:00,
2013-10-02 15:48:00,89.1,68.0,29.75,South,177,6.0,9.0,49,0.00,,,0.00,weatherlink.com 1.10,2013-10-02 20:48:00,
2013-10-02 16:03:00,88.7,68.0,29.74,SSE,167,3.0,12.0,50,0.00,,,0.00,weatherlink.com 1.10,2013-10-02 21:03:00,
2013-10-02 16:18:00,89.3,68.0,29.74,South,181,9.0,9.0,50,0.00,,,0.00,weatherlink.com 1.10,2013-10-02 21:18:00,
2013-10-02 16:33:00,88.9,67.0,29.74,South,188,4.0,10.0,49,0.00,,,0.00,weatherlink.com 1.10,2013-10-02 21:33:00,
2013-10-02 16:48:00,89.4,68.0,29.73,South,173,4.0,9.0,49,0.00,,,0.00,weatherlink.com 1.10,2013-10-02 21:48:00,
2013-10-02 17:03:00,89.4,67.0,29.74,South,184,5.0,8.0,47,0.00,,,0.00,weatherlink.com 1.10,2013-10-02 22:03:00,
2013-10-02 17:18:00,88.8,67.0,29.73,SSE,163,6.0,10.0,49,0.00,,,0.00,weatherlink.com 1.10,2013-10-02 22:18:00,
2013-10-02 17:33:00,87.9,68.0,29.73,SSW,192,2.0,9.0,51,0.00,,,0.00,weatherlink.com 1.10,2013-10-02 22:33:00,
2013-10-02 17:48:00,88.2,67.0,29.73,SSW,192,3.0,10.0,50,0.00,,,0.00,weatherlink.com 1.10,2013-10-02 22:48:00,
2013-10-02 18:03:00,87.9,68.0,29.73,South,188,7.0,8.0,51,0.00,,,0.00,weatherlink.com 1.10,2013-10-02 23:03:00,
2013-10-02 18:18:00,87.3,68.0,29.73,South,182,2.0,8.0,52,0.00,,,0.00,weatherlink.com 1.10,2013-10-02 23:18:00,
2013-10-02 18:33:00,86.6,67.0,29.73,South,169,4.0,9.0,52,0.00,,,0.00,weatherlink.com 1.10,2013-10-02 23:33:00,
2013-10-02 18:48:00,85.9,66.0,29.73,South,186,3.0,11.0,52,0.00,,,0.00,weatherlink.com 1.10,2013-10-02 23:48:00,
2013-10-02 19:03:00,84.8,66.0,29.74,South,186,5.0,8.0,54,0.00,,,0.00,weatherlink.com 1.10,2013-10-03 00:03:00,
2013-10-02 19:18:00,83.8,66.0,29.74,South,186,2.0,6.0,56,0.00,,,0.00,weatherlink.com 1.10,2013-10-03 00:18:00,
2013-10-02 19:33:00,82.8,66.0,29.74,South,186,2.0,5.0,57,0.00,,,0.00,weatherlink.com 1.10,2013-10-03 00:33:00,
2013-10-02 19:48:00,81.9,66.0,29.74,South,186,2.0,5.0,59,0.00,,,0.00,weatherlink.com 1.10,2013-10-03 00:48:00,
2013-10-02 20:03:00,81.0,66.0,29.74,South,186,3.0,4.0,61,0.00,,,0.00,weatherlink.com 1.10,2013-10-03 01:03:00,
2013-10-02 20:18:00,80.7,66.0,29.74,South,186,2.0,5.0,62,0.00,,,0.00,weatherlink.com 1.10,2013-10-03 01:18:00,
2013-10-02 20:33:00,80.3,67.0,29.75,South,186,2.0,6.0,63,0.00,,,0.00,weatherlink.com 1.10,2013-10-03 01:33:00,
2013-10-02 20:48:00,79.7,67.0,29.75,South,186,0.0,4.0,65,0.00,,,0.00,weatherlink.com 1.10,2013-10-03 01:48:00,
2013-10-02 21:03:00,78.8,67.0,29.76,South,186,1.0,3.0,67,0.00,,,0.00,weatherlink.com 1.10,2013-10-03 02:03:00,
2013-10-02 21:18:00,78.3,67.0,29.76,South,186,2.0,4.0,68,0.00,,,0.00,weatherlink.com 1.10,2013-10-03 02:18:00,
2013-10-02 21:33:00,78.4,67.0,29.77,South,186,1.0,5.0,69,0.00,,,0.00,weatherlink.com 1.10,2013-10-03 02:33:00,
2013-10-02 21:48:00,78.3,68.0,29.77,South,186,1.0,5.0,70,0.00,,,0.00,weatherlink.com 1.10,2013-10-03 02:48:00,
2013-10-02 22:03:00,78.0,67.0,29.77,South,186,0.0,1.0,70,0.00,,,0.00,weatherlink.com 1.10,2013-10-03 03:03:00,
2013-10-02 22:18:00,76.9,67.0,29.77,South,186,0.0,1.0,72,0.00,,,0.00,weatherlink.com 1.10,2013-10-03 03:18:00,
2013-10-02 22:33:00,75.7,67.0,29.78,South,186,0.0,0.0,75,0.00,,,0.00,weatherlink.com 1.10,2013-10-03 03:33:00,
2013-10-02 22:48:00,74.8,67.0,29.79,South,186,0.0,0.0,76,0.00,,,0.00,weatherlink.com 1.10,2013-10-03 03:48:00,
2013-10-02 23:03:00,73.6,67.0,29.79,South,186,0.0,0.0,79,0.00,,,0.00,weatherlink.com 1.10,2013-10-03 04:03:00,
2013-10-02 23:18:00,72.5,66.0,29.79,South,186,0.0,0.0,81,0.00,,,0.00,weatherlink.com 1.10,2013-10-03 04:18:00,
2013-10-02 23:33:00,71.8,66.0,29.80,South,186,0.0,0.0,83,0.00,,,0.00,weatherlink.com 1.10,2013-10-03 04:33:00,
2013-10-02 23:48:00,71.5,67.0,29.80,South,186,0.0,0.0,84,0.00,,,0.00,weatherlink.com 1.10,2013-10-03 04:48:00,